createdAt,value
2018-07-23T00:02:28.904Z,59.87
2018-07-23T00:05:02.349Z,59.97
2018-07-23T00:07:33.433Z,59.79
2018-07-23T00:10:04.548Z,59.75
2018-07-23T00:15:15.120Z,57.78
2018-07-23T00:17:47.084Z,58.62
2018-07-23T00:20:19.708Z,59.54
2018-07-23T00:22:51.539Z,59.51
2018-07-23T00:25:21.663Z,59.38
2018-07-23T00:27:53.955Z,58.68
2018-07-23T00:30:25.790Z,57.78
2018-07-23T00:32:56.678Z,58.55
2018-07-23T00:35:26.285Z,57.67
2018-07-23T00:37:55.731Z,58.49
2018-07-23T00:40:25.792Z,58.57
2018-07-23T00:45:30.482Z,59.69
2018-07-23T00:48:00.348Z,59.92
2018-07-23T00:53:05.570Z,59.74
2018-07-23T00:55:35.476Z,59.71
2018-07-23T01:00:43.228Z,59.71
2018-07-23T01:03:13.114Z,59.80
2018-07-23T01:05:43.033Z,59.77
2018-07-23T01:08:13.132Z,59.91
2018-07-23T01:10:43.969Z,58.83
2018-07-23T01:13:13.686Z,59.00
2018-07-23T01:15:43.708Z,58.98
2018-07-23T01:18:13.695Z,57.67
2018-07-23T01:20:44.336Z,58.14
2018-07-23T01:23:14.257Z,58.33
2018-07-23T01:25:44.777Z,58.57
2018-07-23T01:28:14.541Z,59.39
2018-07-23T01:30:44.290Z,59.73
2018-07-23T01:33:15.865Z,59.34
2018-07-23T01:35:45.259Z,59.39
2018-07-23T01:38:15.451Z,60.14
2018-07-23T01:40:45.589Z,60.62
2018-07-23T01:45:53.958Z,59.67
2018-07-23T01:48:23.622Z,59.97
2018-07-23T01:50:53.785Z,61.58
2018-07-23T01:53:23.714Z,62.04
2018-07-23T01:55:55.180Z,61.76
2018-07-23T01:58:39.704Z,61.26
2018-07-23T02:01:12.422Z,62.60
2018-07-23T02:03:42.663Z,62.43
2018-07-23T02:06:12.509Z,63.33
2018-07-23T02:08:42.341Z,63.27
2018-07-23T02:11:12.401Z,63.43
2018-07-23T02:13:42.348Z,60.95
2018-07-23T02:16:12.081Z,63.02
2018-07-23T02:18:41.857Z,64.79
2018-07-23T02:21:13.898Z,64.18
2018-07-23T02:23:44.759Z,63.39
2018-07-23T02:26:15.018Z,63.48
2018-07-23T02:28:45.347Z,63.74
2018-07-23T02:31:15.156Z,65.90
2018-07-23T02:33:45.173Z,65.73
2018-07-23T02:36:15.197Z,65.52
2018-07-23T02:38:45.176Z,63.80
2018-07-23T02:41:16.272Z,64.41
2018-07-23T02:43:46.113Z,64.85
2018-07-23T02:46:16.055Z,65.35
2018-07-23T02:48:45.790Z,65.01
2018-07-23T02:51:16.115Z,65.22
2018-07-23T02:53:45.843Z,63.97
2018-07-23T02:56:17.146Z,65.05
2018-07-23T02:58:46.951Z,63.85
2018-07-23T03:01:18.614Z,63.09
2018-07-23T03:03:48.604Z,63.30
2018-07-23T03:06:18.182Z,62.79
2018-07-23T03:08:47.888Z,62.61
2018-07-23T03:11:18.019Z,62.65
2018-07-23T03:13:48.083Z,63.09
2018-07-23T03:16:18.577Z,63.39
2018-07-23T03:18:48.373Z,63.00
2018-07-23T03:21:21.172Z,62.73
2018-07-23T03:23:56.197Z,63.50
2018-07-23T03:29:16.014Z,64.61
2018-07-23T03:31:51.414Z,64.66
2018-07-23T03:34:27.448Z,64.58
2018-07-23T03:37:04.216Z,63.85
2018-07-23T03:39:48.014Z,65.10
2018-07-23T03:42:24.098Z,63.98
2018-07-23T03:45:07.118Z,63.20
2018-07-23T03:47:44.672Z,63.44
2018-07-23T03:50:19.249Z,63.20
2018-07-23T03:52:58.026Z,63.62
2018-07-23T03:55:37.819Z,65.18
2018-07-23T04:00:59.081Z,64.60
2018-07-23T04:03:41.359Z,64.64
2018-07-23T04:06:16.146Z,65.19
2018-07-23T04:08:57.843Z,64.89
2018-07-23T04:11:36.780Z,65.84
2018-07-23T04:14:34.815Z,67.46
2018-07-23T04:17:14.390Z,68.34
2018-07-23T04:19:55.688Z,67.35
2018-07-23T04:22:31.201Z,66.46
2018-07-23T04:25:07.507Z,65.28
2018-07-23T04:27:43.639Z,62.46
2018-07-23T04:33:08.638Z,63.49
2018-07-23T04:35:45.075Z,63.82
2018-07-23T04:41:05.775Z,64.00
2018-07-23T04:43:44.511Z,65.28
2018-07-23T04:46:19.896Z,65.41
2018-07-23T04:48:57.274Z,65.90
2018-07-23T04:51:34.365Z,66.21
2018-07-23T04:54:11.147Z,66.00
2018-07-23T04:59:35.857Z,64.96
2018-07-23T05:07:41.478Z,66.36
2018-07-23T05:10:18.273Z,65.28
2018-07-23T05:12:58.192Z,65.71
2018-07-23T05:15:38.952Z,65.80
2018-07-23T05:18:17.637Z,65.56
2018-07-23T05:20:54.576Z,66.42
2018-07-23T05:23:34.390Z,65.65
2018-07-23T05:26:12.123Z,65.19
2018-07-23T05:28:50.974Z,65.15
2018-07-23T05:31:29.021Z,66.47
2018-07-23T05:36:50.286Z,65.28
2018-07-23T05:39:31.871Z,64.33
2018-07-23T05:42:08.609Z,64.52
2018-07-23T05:44:48.907Z,64.59
2018-07-23T05:47:28.548Z,63.99
2018-07-23T05:50:06.655Z,65.17
2018-07-23T05:52:44.920Z,64.92
2018-07-23T05:55:23.467Z,64.94
2018-07-23T05:58:06.673Z,63.98
2018-07-23T06:03:27.440Z,64.30
2018-07-23T06:06:04.410Z,64.69
2018-07-23T06:08:43.679Z,64.89
2018-07-23T06:11:16.416Z,65.02
2018-07-23T06:13:55.732Z,64.43
2018-07-23T06:16:33.421Z,64.21
2018-07-23T06:19:09.536Z,63.06
2018-07-23T06:21:50.336Z,64.68
2018-07-23T06:24:28.399Z,64.33
2018-07-23T06:27:08.256Z,63.73
2018-07-23T06:29:50.018Z,63.78
2018-07-23T06:32:29.281Z,63.29
2018-07-23T06:35:09.119Z,63.79
2018-07-23T06:37:45.157Z,63.64
2018-07-23T06:40:26.860Z,64.04
2018-07-23T06:43:02.244Z,64.17
2018-07-23T06:45:39.517Z,63.37
2018-07-23T06:48:21.197Z,64.04
2018-07-23T06:53:37.742Z,64.67
2018-07-23T06:56:15.862Z,63.13
2018-07-23T06:58:55.989Z,63.74
2018-07-23T07:01:32.258Z,63.10
2018-07-23T07:04:09.644Z,62.89
2018-07-23T07:06:46.074Z,63.46
2018-07-23T07:09:30.060Z,63.20
2018-07-23T07:12:06.897Z,63.76
2018-07-23T07:14:43.479Z,62.07
2018-07-23T07:17:23.360Z,62.03
2018-07-23T07:19:58.841Z,61.25
2018-07-23T07:22:36.205Z,61.51
2018-07-23T07:25:12.157Z,61.73
2018-07-23T07:27:52.647Z,62.59
2018-07-23T07:30:35.028Z,62.80
2018-07-23T07:33:15.618Z,63.81
2018-07-23T07:35:55.261Z,64.08
2018-07-23T07:38:34.281Z,63.15
2018-07-23T07:43:55.294Z,63.21
2018-07-23T07:46:36.868Z,63.92
2018-07-23T07:49:13.154Z,63.75
2018-07-23T07:51:52.984Z,64.19
2018-07-23T07:54:31.104Z,62.76
2018-07-23T07:57:15.861Z,63.51
2018-07-23T07:59:56.526Z,63.17
2018-07-23T08:02:36.186Z,62.27
2018-07-23T08:05:15.658Z,63.71
2018-07-23T08:07:52.910Z,64.06
2018-07-23T08:10:28.269Z,63.76
2018-07-23T08:13:05.659Z,62.88
2018-07-23T08:15:42.629Z,62.76
2018-07-23T08:18:18.381Z,62.35
2018-07-23T08:20:55.175Z,61.54
2018-07-23T08:23:36.919Z,59.79
2018-07-23T08:26:17.074Z,59.48
2018-07-23T08:28:51.990Z,56.35
2018-07-23T08:31:40.154Z,51.66
2018-07-23T08:34:20.026Z,55.11
2018-07-23T08:36:56.838Z,52.98
2018-07-23T08:39:33.804Z,55.56
2018-07-23T08:42:13.879Z,55.89
2018-07-23T08:44:53.325Z,56.13
2018-07-23T08:47:32.558Z,51.19
2018-07-23T08:52:56.749Z,56.94
2018-07-23T08:55:33.168Z,54.48
2018-07-23T08:58:11.380Z,55.73
2018-07-23T09:00:48.429Z,56.51
2018-07-23T09:03:31.395Z,54.94
2018-07-23T09:06:14.312Z,52.97
2018-07-23T09:08:55.397Z,55.60
2018-07-23T09:11:41.332Z,52.56
2018-07-23T09:14:21.015Z,50.95
2018-07-23T09:17:04.788Z,53.48
2018-07-23T09:19:42.678Z,50.73
2018-07-23T09:22:31.647Z,53.37
2018-07-23T09:25:08.365Z,53.90
2018-07-23T09:27:49.076Z,54.57
2018-07-23T09:30:34.574Z,52.95
2018-07-23T09:33:22.031Z,54.70
2018-07-23T09:36:04.606Z,52.83
2018-07-23T09:38:44.691Z,54.56
2018-07-23T09:41:24.358Z,54.76
2018-07-23T09:44:07.651Z,55.11
2018-07-23T09:46:52.279Z,56.62
2018-07-23T09:49:35.867Z,57.29
2018-07-23T09:52:27.613Z,57.88
2018-07-23T09:55:03.799Z,56.61
2018-07-23T09:57:44.240Z,56.22
2018-07-23T10:00:25.675Z,56.86
2018-07-23T10:05:57.354Z,56.39
2018-07-23T10:14:12.926Z,55.95
2018-07-23T10:16:52.303Z,57.34
2018-07-23T10:19:38.606Z,54.57
2018-07-23T10:22:25.777Z,55.71
2018-07-23T10:25:04.647Z,54.93
2018-07-23T10:27:45.417Z,53.89
2018-07-23T10:30:25.976Z,54.23
2018-07-23T10:33:08.404Z,55.19
2018-07-23T10:35:45.888Z,55.10
2018-07-23T10:38:31.854Z,52.84
2018-07-23T10:41:18.479Z,55.89
2018-07-23T10:44:01.946Z,55.22
2018-07-23T10:46:41.414Z,55.89
2018-07-23T10:49:23.065Z,55.56
2018-07-23T10:52:03.865Z,56.28
2018-07-23T10:54:43.777Z,57.69
2018-07-23T10:57:26.773Z,53.65
2018-07-23T11:00:03.873Z,51.56
2018-07-23T11:02:46.190Z,52.46
2018-07-23T11:05:31.783Z,54.55
2018-07-23T11:08:16.803Z,54.12
2018-07-23T11:10:54.558Z,53.64
2018-07-23T11:13:36.142Z,52.99
2018-07-23T11:16:14.336Z,54.66
2018-07-23T11:18:50.793Z,53.67
2018-07-23T11:21:37.098Z,53.92
2018-07-23T11:24:19.862Z,53.24
2018-07-23T11:27:00.617Z,53.86
2018-07-23T11:29:39.253Z,54.87
2018-07-23T11:32:20.061Z,53.05
2018-07-23T11:35:07.315Z,52.82
2018-07-23T11:37:48.471Z,52.70
2018-07-23T11:40:21.967Z,51.01
2018-07-23T11:43:03.856Z,51.90
2018-07-23T11:45:44.337Z,52.98
2018-07-23T11:48:32.095Z,52.03
2018-07-23T11:53:56.601Z,51.95
2018-07-23T11:56:36.230Z,53.54
2018-07-23T11:59:16.119Z,52.60
2018-07-23T12:02:02.443Z,52.10
2018-07-23T12:04:40.884Z,52.30
2018-07-23T12:07:27.019Z,52.29
2018-07-23T12:10:08.342Z,54.88
2018-07-23T12:12:43.142Z,54.64
2018-07-23T12:15:18.995Z,54.04
2018-07-23T12:17:59.571Z,54.51
2018-07-23T12:20:45.127Z,53.91
2018-07-23T12:23:29.881Z,54.05
2018-07-23T12:26:15.821Z,54.70
2018-07-23T12:28:59.724Z,52.54
2018-07-23T12:34:25.850Z,54.06
2018-07-23T12:37:03.954Z,53.88
2018-07-23T12:39:41.308Z,55.59
2018-07-23T12:42:26.731Z,55.40
2018-07-23T12:45:07.805Z,54.93
2018-07-23T12:47:45.846Z,55.91
2018-07-23T12:53:10.595Z,55.21
2018-07-23T12:55:57.221Z,55.99
2018-07-23T12:58:36.077Z,55.85
2018-07-23T13:01:09.833Z,54.83
2018-07-23T13:03:51.855Z,54.64
2018-07-23T13:06:35.314Z,54.84
2018-07-23T13:09:17.942Z,56.10
2018-07-23T13:12:03.005Z,54.39
2018-07-23T13:14:42.766Z,53.69
2018-07-23T13:17:21.798Z,52.45
2018-07-23T13:19:58.611Z,53.35
2018-07-23T13:22:39.367Z,53.75
2018-07-23T13:25:21.336Z,54.11
2018-07-23T13:28:01.480Z,56.36
2018-07-23T13:30:39.074Z,55.91
2018-07-23T13:33:17.693Z,56.36
2018-07-23T13:35:54.792Z,54.57
2018-07-23T13:38:32.175Z,55.84
2018-07-23T13:41:13.461Z,55.31
2018-07-23T13:43:50.769Z,54.54
2018-07-23T13:46:30.902Z,53.83
2018-07-23T13:49:15.428Z,52.91
2018-07-23T13:51:57.168Z,53.38
2018-07-23T13:54:41.679Z,52.48
2018-07-23T13:57:22.994Z,50.57
2018-07-23T14:00:06.205Z,50.82
2018-07-23T14:02:42.180Z,46.99
2018-07-23T14:08:12.179Z,49.60
2018-07-23T14:10:51.238Z,49.85
2018-07-23T14:13:32.125Z,48.71
2018-07-23T14:16:14.566Z,48.66
2018-07-23T14:18:51.484Z,46.56
2018-07-23T14:21:32.959Z,47.85
2018-07-23T14:24:16.019Z,46.73
2018-07-23T14:26:53.303Z,45.53
2018-07-23T14:29:31.702Z,45.02
2018-07-23T14:32:12.414Z,46.63
2018-07-23T14:34:50.201Z,45.53
2018-07-23T14:37:37.577Z,44.38
2018-07-23T14:40:15.651Z,44.03
2018-07-23T14:42:55.335Z,42.88
2018-07-23T14:45:29.717Z,43.02
2018-07-23T14:48:05.339Z,45.03
2018-07-23T14:50:44.364Z,44.54
2018-07-23T14:56:01.992Z,44.85
2018-07-23T15:01:19.248Z,45.23
2018-07-23T15:03:59.409Z,43.48
2018-07-23T15:06:48.727Z,41.66
2018-07-23T15:09:25.728Z,44.49
2018-07-23T15:12:10.199Z,42.88
2018-07-23T15:14:48.571Z,43.19
2018-07-23T15:20:22.203Z,42.31
2018-07-23T15:23:01.381Z,43.41
2018-07-23T15:28:23.832Z,40.74
2018-07-23T15:31:05.135Z,40.41
2018-07-23T15:33:48.607Z,40.78
2018-07-23T15:36:35.697Z,39.79
2018-07-23T15:39:18.829Z,42.62
2018-07-23T15:42:00.613Z,41.61
2018-07-23T15:44:40.411Z,40.54
2018-07-23T15:47:26.949Z,39.98
2018-07-23T15:50:05.678Z,40.16
2018-07-23T15:52:43.463Z,39.59
2018-07-23T15:55:29.016Z,40.92
2018-07-23T15:58:06.704Z,39.88
2018-07-23T16:00:44.860Z,40.50
2018-07-23T16:03:25.702Z,39.66
2018-07-23T16:06:08.728Z,40.52
2018-07-23T16:08:47.801Z,38.73
2018-07-23T16:11:29.718Z,40.06
2018-07-23T16:14:08.854Z,40.31
2018-07-23T16:16:51.423Z,40.64
2018-07-23T16:19:32.747Z,40.88
2018-07-23T16:22:24.394Z,39.63
2018-07-23T16:25:03.611Z,39.92
2018-07-23T16:27:43.794Z,40.21
2018-07-23T16:30:19.323Z,39.27
2018-07-23T16:32:58.839Z,40.73
2018-07-23T16:35:35.831Z,42.45
2018-07-23T16:38:19.021Z,40.20
2018-07-23T16:41:03.120Z,41.35
2018-07-23T16:43:48.077Z,41.18
2018-07-23T16:46:26.966Z,40.34
2018-07-23T16:49:16.686Z,41.35
2018-07-23T16:51:58.939Z,40.61
2018-07-23T16:54:38.512Z,41.94
2018-07-23T16:57:21.835Z,42.59
2018-07-23T17:00:00.793Z,42.99
2018-07-23T17:02:42.115Z,41.68
2018-07-23T17:05:22.629Z,40.21
2018-07-23T17:08:06.146Z,40.54
2018-07-23T17:10:43.135Z,40.78
2018-07-23T17:13:23.694Z,40.41
2018-07-23T17:16:00.370Z,40.60
2018-07-23T17:18:41.475Z,40.58
2018-07-23T17:21:23.540Z,40.30
2018-07-23T17:24:01.601Z,40.77
2018-07-23T17:26:39.341Z,43.35
2018-07-23T17:29:21.443Z,40.82
2018-07-23T17:32:05.448Z,43.97
2018-07-23T17:34:47.052Z,44.12
2018-07-23T17:37:28.479Z,44.09
2018-07-23T17:40:09.741Z,47.16
2018-07-23T17:42:53.597Z,46.08
2018-07-23T17:45:35.159Z,46.97
2018-07-23T17:48:15.058Z,47.29
2018-07-23T17:50:55.688Z,46.79
2018-07-23T17:53:35.287Z,47.62
2018-07-23T17:56:16.131Z,48.71
2018-07-23T17:58:59.922Z,49.46
2018-07-23T18:01:44.318Z,49.65
2018-07-23T18:04:25.140Z,49.77
2018-07-23T18:07:10.778Z,50.35
2018-07-23T18:09:48.386Z,50.70
2018-07-23T18:12:35.084Z,50.98
2018-07-23T18:15:19.638Z,49.99
2018-07-23T18:17:59.762Z,50.44
2018-07-23T18:20:44.860Z,50.77
2018-07-23T18:23:29.443Z,51.02
2018-07-23T18:26:08.855Z,50.75
2018-07-23T18:28:52.639Z,49.82
2018-07-23T18:34:16.179Z,51.15
2018-07-23T18:36:57.505Z,52.66
2018-07-23T18:39:36.826Z,51.71
2018-07-23T18:42:22.784Z,52.40
2018-07-23T18:47:55.018Z,51.96
2018-07-23T18:50:39.718Z,53.28
2018-07-23T18:53:30.322Z,54.47
2018-07-23T18:56:10.781Z,53.81
2018-07-23T18:58:55.169Z,54.08
2018-07-23T19:01:43.536Z,53.80
2018-07-23T19:04:25.655Z,54.36
2018-07-23T19:07:06.810Z,54.79
2018-07-23T19:12:29.916Z,55.12
2018-07-23T19:15:13.532Z,54.62
2018-07-23T19:17:52.135Z,55.44
2018-07-23T19:20:31.795Z,54.65
2018-07-23T19:23:09.632Z,54.65
2018-07-23T19:25:56.511Z,54.64
2018-07-23T19:28:36.737Z,54.14
2018-07-23T19:31:11.589Z,55.12
2018-07-23T19:33:51.993Z,54.96
2018-07-23T19:36:28.313Z,56.00
2018-07-23T19:41:50.034Z,58.68
2018-07-23T19:44:29.862Z,58.42
2018-07-23T19:47:08.281Z,57.76
2018-07-23T19:49:55.609Z,57.76
2018-07-23T19:52:37.380Z,57.79
2018-07-23T19:55:16.858Z,56.66
2018-07-23T19:57:59.600Z,58.01
2018-07-23T20:00:46.588Z,56.84
2018-07-23T20:03:37.629Z,57.43
2018-07-23T20:06:27.553Z,57.35
2018-07-23T20:09:11.063Z,56.79
2018-07-23T20:11:54.034Z,56.62
2018-07-23T20:14:41.584Z,56.71
2018-07-23T20:20:14.419Z,57.83
2018-07-23T20:22:57.576Z,57.22
2018-07-23T20:25:38.454Z,58.19
2018-07-23T20:28:19.885Z,58.81
2018-07-23T20:31:04.663Z,58.39
2018-07-23T20:36:30.714Z,57.81
2018-07-23T20:39:13.341Z,58.86
2018-07-23T20:41:59.215Z,57.84
2018-07-23T20:44:38.412Z,57.66
2018-07-23T20:47:27.067Z,58.41
2018-07-23T20:50:12.037Z,57.76
2018-07-23T20:53:05.536Z,58.98
2018-07-23T20:55:57.987Z,58.19
2018-07-23T20:58:40.694Z,58.79
2018-07-23T21:01:24.717Z,58.34
2018-07-23T21:04:14.472Z,58.86
2018-07-23T21:06:56.193Z,58.35
2018-07-23T21:09:43.760Z,58.36
2018-07-23T21:12:25.985Z,58.40
2018-07-23T21:15:08.498Z,58.17
2018-07-23T21:17:58.696Z,57.74
2018-07-23T21:20:49.058Z,58.47
2018-07-23T21:23:36.612Z,57.67
2018-07-23T21:26:24.254Z,57.36
2018-07-23T21:29:08.949Z,57.05
2018-07-23T21:31:54.402Z,57.29
2018-07-23T21:34:39.810Z,57.35
2018-07-23T21:37:28.977Z,57.98
2018-07-23T21:40:06.387Z,57.68
2018-07-23T21:42:56.632Z,58.68
2018-07-23T21:48:36.408Z,59.79
2018-07-23T21:51:25.825Z,59.72
2018-07-23T21:54:20.392Z,60.20
2018-07-23T21:57:13.556Z,61.23
2018-07-23T21:59:53.866Z,60.48
2018-07-23T22:02:47.698Z,60.68
2018-07-23T22:05:40.044Z,62.07
2018-07-23T22:08:24.789Z,60.51
2018-07-23T22:11:12.058Z,59.74
2018-07-23T22:13:59.260Z,61.65
2018-07-23T22:16:49.893Z,60.76
2018-07-23T22:19:37.200Z,60.21
2018-07-23T22:22:23.669Z,59.97
2018-07-23T22:25:06.872Z,59.50
2018-07-23T22:27:53.964Z,58.95
2018-07-23T22:30:36.918Z,58.12
2018-07-23T22:33:24.852Z,59.27
2018-07-23T22:36:11.066Z,59.31
2018-07-23T22:39:03.062Z,58.03
2018-07-23T22:41:53.389Z,58.49
2018-07-23T22:44:41.484Z,58.26
2018-07-23T22:47:38.527Z,58.41
2018-07-23T22:50:24.062Z,59.26
2018-07-23T22:53:15.559Z,58.86
2018-07-23T22:56:01.851Z,58.88
2018-07-23T22:58:50.232Z,58.45
2018-07-23T23:01:39.104Z,58.96
2018-07-23T23:04:25.684Z,58.23
2018-07-23T23:07:13.884Z,59.13
2018-07-23T23:10:03.448Z,59.60
2018-07-23T23:12:54.652Z,59.80
2018-07-23T23:15:41.928Z,59.71
2018-07-23T23:18:35.208Z,58.52
2018-07-23T23:21:24.380Z,59.45
2018-07-23T23:24:06.729Z,60.51
2018-07-23T23:26:56.059Z,59.81
2018-07-23T23:29:46.147Z,59.11
2018-07-23T23:32:39.467Z,59.79
2018-07-23T23:35:25.298Z,60.22
2018-07-23T23:38:17.555Z,59.93
2018-07-23T23:41:01.456Z,59.38
2018-07-23T23:46:50.324Z,58.46
2018-07-23T23:49:35.527Z,58.60
2018-07-23T23:52:23.715Z,59.39
2018-07-23T23:55:07.444Z,58.33
2018-07-23T23:57:50.496Z,57.88
